createdAt,value
2023-01-15T00:01:47.342Z,4.80
2023-01-15T00:06:55.012Z,4.80
2023-01-15T00:12:02.785Z,4.80
2023-01-15T00:17:09.708Z,4.80
2023-01-15T00:22:16.853Z,4.70
2023-01-15T00:27:42.196Z,4.70
2023-01-15T00:32:49.687Z,4.60
2023-01-15T00:37:56.421Z,4.70
2023-01-15T00:43:03.790Z,4.60
2023-01-15T00:48:10.636Z,4.60
2023-01-15T00:53:17.517Z,4.60
2023-01-15T00:58:24.704Z,4.60
2023-01-15T01:03:31.968Z,4.60
2023-01-15T01:08:39.189Z,4.70
2023-01-15T01:13:47.435Z,4.70
2023-01-15T01:18:54.911Z,4.60
2023-01-15T01:24:03.530Z,4.60
2023-01-15T01:29:12.209Z,4.70
2023-01-15T01:34:19.317Z,4.70
2023-01-15T01:39:26.775Z,4.80
2023-01-15T01:44:41.145Z,4.90
2023-01-15T01:49:50.911Z,4.80
2023-01-15T01:54:58.668Z,5.00
2023-01-15T02:00:07.189Z,4.90
2023-01-15T02:05:20.616Z,4.80
2023-01-15T02:10:28.333Z,4.90
2023-01-15T02:15:48.875Z,4.90
2023-01-15T02:21:03.254Z,4.90
2023-01-15T02:26:38.155Z,4.90
2023-01-15T02:31:45.542Z,4.90
2023-01-15T02:36:56.325Z,4.90
2023-01-15T02:42:06.112Z,4.80
2023-01-15T02:47:14.109Z,4.80
2023-01-15T02:52:37.040Z,4.80
2023-01-15T02:57:45.729Z,4.90
2023-01-15T03:02:59.593Z,4.90
2023-01-15T03:08:09.554Z,4.80
2023-01-15T03:13:20.988Z,4.70
2023-01-15T03:18:30.711Z,4.80
2023-01-15T03:23:40.868Z,4.90
2023-01-15T03:28:49.245Z,4.90
2023-01-15T03:33:56.933Z,5.00
2023-01-15T03:39:03.991Z,5.00
2023-01-15T03:44:30.567Z,5.20
2023-01-15T03:49:48.061Z,5.10
2023-01-15T03:55:16.713Z,5.10
2023-01-15T04:00:39.527Z,5.00
2023-01-15T04:05:47.891Z,4.90
2023-01-15T04:11:00.633Z,4.70
2023-01-15T04:16:08.069Z,4.70
2023-01-15T04:21:14.861Z,4.70
2023-01-15T04:26:22.383Z,4.60
2023-01-15T04:31:29.351Z,4.40
2023-01-15T04:36:36.573Z,4.20
2023-01-15T04:42:01.017Z,4.20
2023-01-15T04:47:07.727Z,4.20
2023-01-15T04:52:14.501Z,4.10
2023-01-15T04:57:21.481Z,4.00
2023-01-15T05:02:28.465Z,4.10
2023-01-15T05:07:35.308Z,4.20
2023-01-15T05:12:42.095Z,4.40
2023-01-15T05:17:49.311Z,4.50
2023-01-15T05:22:56.175Z,4.60
2023-01-15T05:28:03.166Z,4.60
2023-01-15T05:33:10.142Z,4.60
2023-01-15T05:38:16.985Z,4.60
2023-01-15T05:43:23.711Z,4.70
2023-01-15T05:48:30.813Z,4.90
2023-01-15T05:53:38.187Z,4.80
2023-01-15T05:58:44.887Z,4.80
2023-01-15T06:03:53.489Z,5.00
2023-01-15T06:09:00.670Z,5.00
2023-01-15T06:14:08.690Z,5.30
2023-01-15T06:19:16.219Z,5.20
2023-01-15T06:24:23.399Z,5.20
2023-01-15T06:29:31.112Z,5.30
2023-01-15T06:34:37.817Z,5.10
2023-01-15T06:39:44.654Z,5.10
2023-01-15T06:45:09.176Z,4.90
2023-01-15T06:50:16.031Z,4.70
2023-01-15T06:55:23.957Z,4.80
2023-01-15T07:00:30.914Z,4.80
2023-01-15T07:05:39.759Z,4.00
2023-01-15T07:10:46.445Z,4.00
2023-01-15T07:15:53.384Z,4.30
2023-01-15T07:21:01.002Z,4.40
2023-01-15T07:26:08.044Z,4.50
2023-01-15T07:31:15.688Z,4.70
2023-01-15T07:36:22.810Z,4.60
2023-01-15T07:41:48.653Z,4.80
2023-01-15T07:47:12.757Z,4.90
2023-01-15T07:52:22.369Z,4.80
2023-01-15T07:57:29.098Z,4.90
2023-01-15T08:02:35.697Z,4.80
2023-01-15T08:07:44.221Z,4.90
2023-01-15T08:13:10.813Z,5.00
2023-01-15T08:18:17.520Z,4.90
2023-01-15T08:23:24.314Z,5.00
2023-01-15T08:28:31.086Z,5.30
2023-01-15T08:33:37.800Z,5.40
2023-01-15T08:38:44.878Z,5.60
2023-01-15T08:43:51.985Z,5.70
2023-01-15T08:48:59.478Z,5.40
2023-01-15T08:54:06.414Z,5.70
2023-01-15T08:59:13.636Z,5.90
2023-01-15T09:04:23.217Z,6.20
2023-01-15T09:09:30.525Z,6.30
2023-01-15T09:14:55.462Z,6.30
2023-01-15T09:19:46.056Z,6.40
2023-01-15T09:24:52.754Z,6.40
2023-01-15T09:29:59.932Z,6.60
2023-01-15T09:35:07.378Z,6.80
2023-01-15T09:40:40.498Z,7.10
2023-01-15T09:46:03.914Z,7.10
2023-01-15T09:51:30.207Z,7.30
2023-01-15T09:56:39.817Z,7.10
2023-01-15T10:01:47.282Z,7.20
2023-01-15T10:07:04.313Z,7.30
2023-01-15T10:12:36.259Z,7.30
2023-01-15T10:17:49.007Z,7.10
2023-01-15T10:23:40.558Z,6.80
2023-01-15T10:28:51.735Z,6.70
2023-01-15T10:34:25.190Z,6.90
2023-01-15T10:40:00.402Z,6.90
2023-01-15T10:45:28.668Z,7.00
2023-01-15T10:50:36.938Z,7.00
2023-01-15T10:55:54.087Z,6.90
2023-01-15T11:01:08.522Z,6.70
2023-01-15T11:06:22.340Z,6.70
2023-01-15T11:12:00.036Z,7.00
2023-01-15T11:17:28.750Z,7.20
2023-01-15T11:22:39.803Z,7.20
2023-01-15T11:27:49.711Z,7.30
2023-01-15T11:33:04.393Z,7.20
2023-01-15T11:38:16.332Z,6.90
2023-01-15T11:43:47.640Z,6.90
2023-01-15T11:49:12.265Z,6.80
2023-01-15T11:54:18.537Z,6.70
2023-01-15T11:59:25.680Z,6.70
2023-01-15T12:04:45.396Z,6.60
2023-01-15T12:10:12.426Z,6.40
2023-01-15T12:15:55.686Z,6.40
2023-01-15T12:21:06.912Z,6.90
2023-01-15T12:26:36.967Z,6.70
2023-01-15T12:31:48.177Z,6.50
2023-01-15T12:37:10.442Z,6.30
2023-01-15T12:42:39.094Z,6.30
2023-01-15T12:47:53.376Z,6.50
2023-01-15T12:53:17.459Z,6.50
2023-01-15T12:58:50.739Z,6.80
2023-01-15T13:04:31.153Z,6.80
2023-01-15T13:09:51.276Z,6.70
2023-01-15T13:14:58.347Z,6.90
2023-01-15T13:20:37.954Z,6.80
2023-01-15T13:26:29.858Z,6.80
2023-01-15T13:31:56.288Z,6.90
2023-01-15T13:37:28.424Z,7.10
2023-01-15T13:42:40.369Z,7.00
2023-01-15T13:47:53.933Z,7.10
2023-01-15T13:53:16.118Z,7.10
2023-01-15T13:58:29.261Z,7.20
2023-01-15T14:03:38.887Z,7.10
2023-01-15T14:08:47.817Z,7.20
2023-01-15T14:14:24.435Z,7.10
2023-01-15T14:19:47.385Z,7.00
2023-01-15T14:25:10.776Z,7.00
2023-01-15T14:30:41.155Z,6.90
2023-01-15T14:35:50.151Z,7.00
2023-01-15T14:41:00.685Z,6.90
2023-01-15T14:46:17.760Z,6.90
2023-01-15T14:51:32.032Z,6.80
2023-01-15T14:56:51.951Z,6.80
2023-01-15T15:02:06.233Z,6.80
2023-01-15T15:07:19.325Z,6.80
2023-01-15T15:13:06.262Z,6.70
2023-01-15T15:18:36.507Z,6.90
2023-01-15T15:23:52.045Z,6.80
2023-01-15T15:29:14.550Z,6.70
2023-01-15T15:34:26.424Z,6.60
2023-01-15T15:39:46.180Z,6.50
2023-01-15T15:45:14.862Z,6.60
2023-01-15T15:50:29.407Z,6.50
2023-01-15T15:55:45.341Z,6.30
2023-01-15T16:00:54.297Z,6.40
2023-01-15T16:06:08.587Z,6.50
2023-01-15T16:11:16.503Z,6.50
2023-01-15T16:16:25.548Z,6.70
2023-01-15T16:21:41.426Z,6.80
2023-01-15T16:26:52.813Z,6.70
2023-01-15T16:32:01.175Z,6.80
2023-01-15T16:37:15.254Z,6.80
2023-01-15T16:42:35.573Z,6.90
2023-01-15T16:47:42.661Z,7.10
2023-01-15T16:53:00.336Z,7.00
2023-01-15T16:58:19.962Z,7.10
2023-01-15T17:03:30.087Z,7.00
2023-01-15T17:08:39.727Z,7.00
2023-01-15T17:13:46.879Z,7.00
2023-01-15T17:18:54.392Z,7.10
2023-01-15T17:24:01.121Z,7.20
2023-01-15T17:29:08.176Z,7.10
2023-01-15T17:34:14.892Z,6.90
2023-01-15T17:39:21.846Z,6.80
2023-01-15T17:44:29.077Z,6.70
2023-01-15T17:49:36.523Z,6.60
2023-01-15T17:55:00.482Z,6.50
2023-01-15T18:00:25.703Z,6.50
2023-01-15T18:05:34.762Z,6.40
2023-01-15T18:10:41.865Z,6.20
2023-01-15T18:15:48.698Z,6.10
2023-01-15T18:20:55.584Z,6.00
2023-01-15T18:26:07.668Z,6.30
2023-01-15T18:31:15.060Z,6.30
2023-01-15T18:36:22.488Z,5.90
2023-01-15T18:41:31.082Z,5.80
2023-01-15T18:46:48.787Z,5.80
2023-01-15T18:52:13.458Z,5.60
2023-01-15T18:57:19.191Z,5.40
2023-01-15T19:02:25.755Z,5.30
2023-01-15T19:07:33.570Z,5.30
2023-01-15T19:12:41.044Z,5.00
2023-01-15T19:18:06.046Z,5.20
2023-01-15T19:23:12.979Z,5.20
2023-01-15T19:28:22.403Z,5.10
2023-01-15T19:33:29.613Z,5.10
2023-01-15T19:38:41.692Z,5.10
2023-01-15T19:44:05.806Z,5.20
2023-01-15T19:49:39.551Z,5.00
2023-01-15T19:54:58.735Z,5.10
2023-01-15T20:00:09.242Z,5.20
2023-01-15T20:05:17.129Z,5.30
2023-01-15T20:10:26.523Z,5.30
2023-01-15T20:15:33.641Z,5.40
2023-01-15T20:20:41.071Z,5.30
2023-01-15T20:25:49.437Z,5.30
2023-01-15T20:30:56.657Z,5.30
2023-01-15T20:36:06.077Z,5.20
2023-01-15T20:41:15.030Z,5.20
2023-01-15T20:46:21.772Z,5.30
2023-01-15T20:51:28.780Z,5.30
2023-01-15T20:56:35.531Z,5.40
2023-01-15T21:01:43.048Z,5.30
2023-01-15T21:06:49.993Z,5.20
2023-01-15T21:11:56.664Z,5.00
2023-01-15T21:17:03.549Z,5.00
2023-01-15T21:22:10.743Z,4.80
2023-01-15T21:27:18.324Z,4.70
2023-01-15T21:32:26.641Z,4.70
2023-01-15T21:37:33.842Z,4.60
2023-01-15T21:42:57.959Z,4.70
2023-01-15T21:48:05.393Z,4.30
2023-01-15T21:53:12.487Z,4.30
2023-01-15T21:58:20.365Z,4.30
2023-01-15T22:03:27.313Z,4.20
2023-01-15T22:08:34.962Z,4.10
2023-01-15T22:13:42.012Z,3.90
2023-01-15T22:18:48.655Z,3.90
2023-01-15T22:23:55.915Z,4.10
2023-01-15T22:29:03.332Z,4.00
2023-01-15T22:34:10.765Z,4.00
2023-01-15T22:39:18.037Z,4.00
2023-01-15T22:44:24.927Z,3.80
2023-01-15T22:49:32.801Z,3.90
2023-01-15T22:54:40.066Z,3.90
2023-01-15T22:59:46.842Z,3.90
2023-01-15T23:04:53.610Z,3.90
2023-01-15T23:10:00.656Z,3.90
2023-01-15T23:15:09.461Z,3.90
2023-01-15T23:20:16.460Z,3.90
2023-01-15T23:25:23.417Z,3.90
2023-01-15T23:30:30.266Z,3.80
2023-01-15T23:35:37.677Z,3.80
2023-01-15T23:40:45.946Z,3.80
2023-01-15T23:46:11.026Z,3.80
2023-01-15T23:51:18.090Z,3.80
2023-01-15T23:56:25.338Z,3.60
